Accueil
METAR-TAF:

METAR-TAF

Aéroports :

Aérodrome de Futuna Pointe Vele

Futuna, France

latitude: 14-19S, longitude: 178-07W, altitude: 6 m

METAR: absent

Heure: 04:37 (16:37 UTC)

Prévision

Le bulletin a été fait il y a 5 heures et 37 minutes, à 11:00 UTC
Prévision valable du 22 à 12 UTC au 23 à 12 UTC
Vent 10 kt de nord-ouest
Visibilité 10 km ou plus
Nuages épars à une hauteur de 2000 ft
Nuages épars à une hauteur de 10000 ft
Temporairement
du 22 à 12 UTC au 23 à 12 UTC
Visibilité: 4000 m
Quelques nuages à une hauteur de 2000 ft, Cumulonimbus.
averses de pluie
Probabilité 30% :
Temporairement
du 22 à 12 UTC au 22 à 18 UTC
Visibilité: 2000 m
Nuages fragmentés à une hauteur de 1400 ft
Nuages épars à une hauteur de 1800 ft, Cumulonimbus.
Nuages fragmentés à une hauteur de 2000 ft
orage, pluie,

TAF: NLWF 221100Z 2212/2312 31010KT 9999 SCT020 SCT100 TEMPO 2212/2312 4000 SHRA FEW020CB PROB30 TEMPO 2212/2218 2000 TSRA BKN014 SCT018CB BKN020

Observations et prévisions météorologiques de plus de 4000 aéroports (messages METAR et TAF).

Les stations disponibles sont représentées par des disques jaunes et rouges sur la carte.

Passer la souris dessus pour voir le nom de la station.

Cliquer dessus pour voir les observations et prévisions météorologiques.

Pour changer de carte: cliquez sur les boutons verts avec une croix noire pour zoomer, sur le bouton vert avec un tiret pour effectuer un zoom arrière, ou sur les flèches vertes pour les cartes adjacentes.


METAR-TAF: